sensor_id;sensor_type;location;lat;lon;timestamp;temperature;humidity
6110;DHT22;3085;49.444;11.054;2023-05-10T00:01:50;17.50;99.90
6110;DHT22;3085;49.444;11.054;2023-05-10T00:04:17;17.50;99.90
6110;DHT22;3085;49.444;11.054;2023-05-10T00:06:44;17.50;99.90
6110;DHT22;3085;49.444;11.054;2023-05-10T00:09:12;17.40;99.90
6110;DHT22;3085;49.444;11.054;2023-05-10T00:11:39;17.40;99.90
6110;DHT22;3085;49.444;11.054;2023-05-10T00:14:06;17.20;99.90
6110;DHT22;3085;49.444;11.054;2023-05-10T00:16:33;17.20;99.90
6110;DHT22;3085;49.444;11.054;2023-05-10T00:18:59;17.20;99.90
6110;DHT22;3085;49.444;11.054;2023-05-10T00:21:26;17.20;99.90
6110;DHT22;3085;49.444;11.054;2023-05-10T00:23:54;17.30;99.90
6110;DHT22;3085;49.444;11.054;2023-05-10T00:26:22;17.10;99.90
6110;DHT22;3085;49.444;11.054;2023-05-10T00:28:49;17.10;99.90
6110;DHT22;3085;49.444;11.054;2023-05-10T00:31:15;17.10;99.90
6110;DHT22;3085;49.444;11.054;2023-05-10T00:33:42;17.00;99.90
6110;DHT22;3085;49.444;11.054;2023-05-10T00:36:09;16.90;99.90
6110;DHT22;3085;49.444;11.054;2023-05-10T00:38:36;16.80;99.90
6110;DHT22;3085;49.444;11.054;2023-05-10T00:41:03;16.80;99.90
6110;DHT22;3085;49.444;11.054;2023-05-10T00:43:31;16.90;99.90
6110;DHT22;3085;49.444;11.054;2023-05-10T00:45:58;16.80;99.90
6110;DHT22;3085;49.444;11.054;2023-05-10T00:48:25;16.80;99.90
6110;DHT22;3085;49.444;11.054;2023-05-10T00:50:52;16.90;99.90
6110;DHT22;3085;49.444;11.054;2023-05-10T00:53:19;17.10;99.90
6110;DHT22;3085;49.444;11.054;2023-05-10T00:55:46;17.00;99.90
6110;DHT22;3085;49.444;11.054;2023-05-10T00:58:13;17.00;99.90
6110;DHT22;3085;49.444;11.054;2023-05-10T01:00:42;17.00;99.90
6110;DHT22;3085;49.444;11.054;2023-05-10T01:03:10;17.10;99.90
6110;DHT22;3085;49.444;11.054;2023-05-10T01:05:37;17.00;99.90
6110;DHT22;3085;49.444;11.054;2023-05-10T01:08:04;17.00;99.90
6110;DHT22;3085;49.444;11.054;2023-05-10T01:10:31;16.90;99.90
6110;DHT22;3085;49.444;11.054;2023-05-10T01:12:59;17.30;99.90
6110;DHT22;3085;49.444;11.054;2023-05-10T01:15:26;16.60;99.90
6110;DHT22;3085;49.444;11.054;2023-05-10T01:17:55;16.50;99.90
6110;DHT22;3085;49.444;11.054;2023-05-10T01:20:23;16.40;99.90
6110;DHT22;3085;49.444;11.054;2023-05-10T01:23:16;16.40;99.90
6110;DHT22;3085;49.444;11.054;2023-05-10T01:26:06;16.50;99.90
6110;DHT22;3085;49.444;11.054;2023-05-10T01:32:02;16.40;99.90
6110;DHT22;3085;49.444;11.054;2023-05-10T01:34:35;16.40;99.90
6110;DHT22;3085;49.444;11.054;2023-05-10T01:37:09;16.60;99.90
6110;DHT22;3085;49.444;11.054;2023-05-10T01:39:42;16.30;99.90
6110;DHT22;3085;49.444;11.054;2023-05-10T01:42:14;16.20;99.90
6110;DHT22;3085;49.444;11.054;2023-05-10T01:44:48;16.20;99.90
6110;DHT22;3085;49.444;11.054;2023-05-10T01:47:22;16.20;99.90
6110;DHT22;3085;49.444;11.054;2023-05-10T01:49:53;16.10;99.90
6110;DHT22;3085;49.444;11.054;2023-05-10T01:52:26;16.20;99.90
6110;DHT22;3085;49.444;11.054;2023-05-10T01:55:01;16.00;99.90
6110;DHT22;3085;49.444;11.054;2023-05-10T01:57:37;15.90;99.90
6110;DHT22;3085;49.444;11.054;2023-05-10T02:00:07;15.90;99.90
6110;DHT22;3085;49.444;11.054;2023-05-10T02:02:37;15.80;99.90
6110;DHT22;3085;49.444;11.054;2023-05-10T02:05:06;16.00;99.90
6110;DHT22;3085;49.444;11.054;2023-05-10T02:07:35;16.10;99.90
6110;DHT22;3085;49.444;11.054;2023-05-10T02:10:04;16.10;99.90
6110;DHT22;3085;49.444;11.054;2023-05-10T02:12:32;15.90;99.90
6110;DHT22;3085;49.444;11.054;2023-05-10T02:15:05;15.90;99.90
6110;DHT22;3085;49.444;11.054;2023-05-10T02:17:32;15.90;99.90
6110;DHT22;3085;49.444;11.054;2023-05-10T02:20:03;15.90;99.90
6110;DHT22;3085;49.444;11.054;2023-05-10T02:22:30;16.00;99.90
6110;DHT22;3085;49.444;11.054;2023-05-10T02:24:59;16.00;99.90
6110;DHT22;3085;49.444;11.054;2023-05-10T02:27:28;15.00;99.90
6110;DHT22;3085;49.444;11.054;2023-05-10T02:29:56;16.10;99.90
6110;DHT22;3085;49.444;11.054;2023-05-10T02:32:25;16.00;99.90
6110;DHT22;3085;49.444;11.054;2023-05-10T02:34:53;16.00;99.90
6110;DHT22;3085;49.444;11.054;2023-05-10T02:37:22;17.40;99.90
6110;DHT22;3085;49.444;11.054;2023-05-10T02:39:52;16.10;99.90
6110;DHT22;3085;49.444;11.054;2023-05-10T02:42:23;16.20;99.90
6110;DHT22;3085;49.444;11.054;2023-05-10T02:44:53;16.10;99.90
6110;DHT22;3085;49.444;11.054;2023-05-10T02:47:20;16.10;99.90
6110;DHT22;3085;49.444;11.054;2023-05-10T02:49:48;16.20;99.90
6110;DHT22;3085;49.444;11.054;2023-05-10T02:52:29;16.20;99.90
6110;DHT22;3085;49.444;11.054;2023-05-10T02:55:01;16.20;99.90
6110;DHT22;3085;49.444;11.054;2023-05-10T02:57:32;16.10;99.90
6110;DHT22;3085;49.444;11.054;2023-05-10T03:00:00;16.10;99.90
6110;DHT22;3085;49.444;11.054;2023-05-10T03:02:26;16.00;99.90
6110;DHT22;3085;49.444;11.054;2023-05-10T03:04:55;15.90;99.90
6110;DHT22;3085;49.444;11.054;2023-05-10T03:07:23;15.70;99.90
6110;DHT22;3085;49.444;11.054;2023-05-10T03:09:50;15.70;99.90
6110;DHT22;3085;49.444;11.054;2023-05-10T03:12:25;15.70;99.90
6110;DHT22;3085;49.444;11.054;2023-05-10T03:14:57;15.60;99.90
6110;DHT22;3085;49.444;11.054;2023-05-10T03:17:30;15.50;99.90
6110;DHT22;3085;49.444;11.054;2023-05-10T03:20:04;15.50;99.90
6110;DHT22;3085;49.444;11.054;2023-05-10T03:22:37;15.50;99.90
6110;DHT22;3085;49.444;11.054;2023-05-10T03:25:06;15.40;99.90
6110;DHT22;3085;49.444;11.054;2023-05-10T03:27:36;15.40;99.90
6110;DHT22;3085;49.444;11.054;2023-05-10T03:30:08;15.30;99.90
6110;DHT22;3085;49.444;11.054;2023-05-10T03:32:37;15.20;99.90
6110;DHT22;3085;49.444;11.054;2023-05-10T03:35:06;15.20;99.90
6110;DHT22;3085;49.444;11.054;2023-05-10T03:37:34;15.10;99.90
6110;DHT22;3085;49.444;11.054;2023-05-10T03:40:01;15.10;99.90
6110;DHT22;3085;49.444;11.054;2023-05-10T03:42:28;15.10;99.90
6110;DHT22;3085;49.444;11.054;2023-05-10T03:44:56;15.00;99.90
6110;DHT22;3085;49.444;11.054;2023-05-10T03:47:23;15.00;99.90
6110;DHT22;3085;49.444;11.054;2023-05-10T03:49:50;15.00;99.90
6110;DHT22;3085;49.444;11.054;2023-05-10T03:52:16;15.00;99.90
6110;DHT22;3085;49.444;11.054;2023-05-10T03:54:43;15.00;99.90
6110;DHT22;3085;49.444;11.054;2023-05-10T03:57:10;15.00;99.90
6110;DHT22;3085;49.444;11.054;2023-05-10T03:59:37;15.00;99.90
6110;DHT22;3085;49.444;11.054;2023-05-10T04:02:05;15.00;99.90
6110;DHT22;3085;49.444;11.054;2023-05-10T04:04:35;14.90;99.90
6110;DHT22;3085;49.444;11.054;2023-05-10T04:07:02;14.80;99.90
6110;DHT22;3085;49.444;11.054;2023-05-10T04:09:32;14.70;99.90
6110;DHT22;3085;49.444;11.054;2023-05-10T04:11:59;14.70;99.90
6110;DHT22;3085;49.444;11.054;2023-05-10T04:14:27;14.70;99.90
6110;DHT22;3085;49.444;11.054;2023-05-10T04:16:54;14.70;99.90
6110;DHT22;3085;49.444;11.054;2023-05-10T04:19:28;15.50;99.90
6110;DHT22;3085;49.444;11.054;2023-05-10T04:21:55;14.70;99.90
6110;DHT22;3085;49.444;11.054;2023-05-10T04:24:21;14.70;99.90
6110;DHT22;3085;49.444;11.054;2023-05-10T04:26:48;14.70;99.90
6110;DHT22;3085;49.444;11.054;2023-05-10T04:29:15;14.70;99.90
6110;DHT22;3085;49.444;11.054;2023-05-10T04:31:42;14.70;99.90
6110;DHT22;3085;49.444;11.054;2023-05-10T04:34:09;14.60;99.90
6110;DHT22;3085;49.444;11.054;2023-05-10T04:36:39;14.50;99.90
6110;DHT22;3085;49.444;11.054;2023-05-10T04:39:06;14.50;99.90
6110;DHT22;3085;49.444;11.054;2023-05-10T04:41:35;14.40;99.90
6110;DHT22;3085;49.444;11.054;2023-05-10T04:44:01;14.40;99.90
6110;DHT22;3085;49.444;11.054;2023-05-10T04:46:28;14.40;99.90
6110;DHT22;3085;49.444;11.054;2023-05-10T04:48:55;14.50;99.90
6110;DHT22;3085;49.444;11.054;2023-05-10T04:51:22;14.40;99.90
6110;DHT22;3085;49.444;11.054;2023-05-10T04:53:50;14.40;99.90
6110;DHT22;3085;49.444;11.054;2023-05-10T04:56:17;14.40;99.90
6110;DHT22;3085;49.444;11.054;2023-05-10T04:58:44;14.40;99.90
6110;DHT22;3085;49.444;11.054;2023-05-10T05:01:11;14.50;99.90
6110;DHT22;3085;49.444;11.054;2023-05-10T05:03:38;14.40;99.90
6110;DHT22;3085;49.444;11.054;2023-05-10T05:06:05;14.40;99.90
6110;DHT22;3085;49.444;11.054;2023-05-10T05:08:32;14.40;99.90
6110;DHT22;3085;49.444;11.054;2023-05-10T05:11:00;14.30;99.90
6110;DHT22;3085;49.444;11.054;2023-05-10T05:13:26;13.50;99.90
6110;DHT22;3085;49.444;11.054;2023-05-10T05:15:53;14.30;99.90
6110;DHT22;3085;49.444;11.054;2023-05-10T05:18:20;14.30;99.90
6110;DHT22;3085;49.444;11.054;2023-05-10T05:20:47;14.40;99.90
6110;DHT22;3085;49.444;11.054;2023-05-10T05:23:14;14.40;99.90
6110;DHT22;3085;49.444;11.054;2023-05-10T05:25:41;14.40;99.90
6110;DHT22;3085;49.444;11.054;2023-05-10T05:28:09;14.40;99.90
6110;DHT22;3085;49.444;11.054;2023-05-10T05:30:36;14.40;99.90
6110;DHT22;3085;49.444;11.054;2023-05-10T05:33:03;14.40;99.90
6110;DHT22;3085;49.444;11.054;2023-05-10T05:35:30;14.50;99.90
6110;DHT22;3085;49.444;11.054;2023-05-10T05:37:57;14.50;99.90
6110;DHT22;3085;49.444;11.054;2023-05-10T05:40:23;14.40;99.90
6110;DHT22;3085;49.444;11.054;2023-05-10T05:42:50;14.30;99.90
6110;DHT22;3085;49.444;11.054;2023-05-10T05:45:18;14.40;99.90
6110;DHT22;3085;49.444;11.054;2023-05-10T05:47:45;14.40;99.90
6110;DHT22;3085;49.444;11.054;2023-05-10T05:50:12;14.30;99.90
6110;DHT22;3085;49.444;11.054;2023-05-10T05:52:39;14.30;99.90
6110;DHT22;3085;49.444;11.054;2023-05-10T05:55:07;14.40;99.90
6110;DHT22;3085;49.444;11.054;2023-05-10T05:57:33;14.30;99.90
6110;DHT22;3085;49.444;11.054;2023-05-10T06:00:00;14.20;99.90
6110;DHT22;3085;49.444;11.054;2023-05-10T06:02:29;14.30;99.90
6110;DHT22;3085;49.444;11.054;2023-05-10T06:04:56;14.30;99.90
6110;DHT22;3085;49.444;11.054;2023-05-10T06:07:23;14.30;99.90
6110;DHT22;3085;49.444;11.054;2023-05-10T06:09:50;14.20;99.90
6110;DHT22;3085;49.444;11.054;2023-05-10T06:12:17;14.10;99.90
6110;DHT22;3085;49.444;11.054;2023-05-10T06:14:44;14.20;99.90
6110;DHT22;3085;49.444;11.054;2023-05-10T06:17:11;14.30;99.90
6110;DHT22;3085;49.444;11.054;2023-05-10T06:19:39;14.30;99.90
6110;DHT22;3085;49.444;11.054;2023-05-10T06:22:06;14.20;99.90
6110;DHT22;3085;49.444;11.054;2023-05-10T06:24:32;14.30;99.90
6110;DHT22;3085;49.444;11.054;2023-05-10T06:26:59;14.40;99.90
6110;DHT22;3085;49.444;11.054;2023-05-10T06:29:27;14.40;99.90
6110;DHT22;3085;49.444;11.054;2023-05-10T06:31:54;14.30;99.90
6110;DHT22;3085;49.444;11.054;2023-05-10T06:34:21;14.30;99.90
6110;DHT22;3085;49.444;11.054;2023-05-10T06:36:49;14.50;99.90
6110;DHT22;3085;49.444;11.054;2023-05-10T06:39:17;15.90;99.90
6110;DHT22;3085;49.444;11.054;2023-05-10T06:41:43;14.50;99.90
6110;DHT22;3085;49.444;11.054;2023-05-10T06:44:10;14.50;99.90
6110;DHT22;3085;49.444;11.054;2023-05-10T06:46:38;14.50;99.90
6110;DHT22;3085;49.444;11.054;2023-05-10T06:49:05;14.50;99.90
6110;DHT22;3085;49.444;11.054;2023-05-10T06:51:32;14.60;99.90
6110;DHT22;3085;49.444;11.054;2023-05-10T06:54:03;14.80;99.90
6110;DHT22;3085;49.444;11.054;2023-05-10T06:56:29;14.70;99.90
6110;DHT22;3085;49.444;11.054;2023-05-10T06:58:56;14.80;99.90
6110;DHT22;3085;49.444;11.054;2023-05-10T07:01:23;14.80;99.90
6110;DHT22;3085;49.444;11.054;2023-05-10T07:03:50;14.80;99.90
6110;DHT22;3085;49.444;11.054;2023-05-10T07:06:17;14.90;99.90
6110;DHT22;3085;49.444;11.054;2023-05-10T07:08:44;14.60;99.90
6110;DHT22;3085;49.444;11.054;2023-05-10T07:11:12;14.70;99.90
6110;DHT22;3085;49.444;11.054;2023-05-10T07:13:39;14.80;99.90
6110;DHT22;3085;49.444;11.054;2023-05-10T07:16:09;14.90;99.90
6110;DHT22;3085;49.444;11.054;2023-05-10T07:18:36;14.90;99.90
6110;DHT22;3085;49.444;11.054;2023-05-10T07:21:03;14.90;99.90
6110;DHT22;3085;49.444;11.054;2023-05-10T07:23:30;15.00;99.90
6110;DHT22;3085;49.444;11.054;2023-05-10T07:25:57;14.90;99.90
6110;DHT22;3085;49.444;11.054;2023-05-10T07:28:25;15.00;99.90
6110;DHT22;3085;49.444;11.054;2023-05-10T07:30:52;15.00;99.90
6110;DHT22;3085;49.444;11.054;2023-05-10T07:33:18;14.90;99.90
6110;DHT22;3085;49.444;11.054;2023-05-10T07:35:45;14.80;99.90
6110;DHT22;3085;49.444;11.054;2023-05-10T07:38:12;14.80;99.90
6110;DHT22;3085;49.444;11.054;2023-05-10T07:40:39;14.80;99.90
6110;DHT22;3085;49.444;11.054;2023-05-10T07:43:06;14.90;99.90
6110;DHT22;3085;49.444;11.054;2023-05-10T07:45:34;15.00;99.90
6110;DHT22;3085;49.444;11.054;2023-05-10T07:48:01;15.00;99.90
6110;DHT22;3085;49.444;11.054;2023-05-10T07:50:28;15.00;99.90
6110;DHT22;3085;49.444;11.054;2023-05-10T07:52:55;15.00;99.90
6110;DHT22;3085;49.444;11.054;2023-05-10T07:55:22;15.00;99.90
6110;DHT22;3085;49.444;11.054;2023-05-10T07:57:49;14.90;99.90
6110;DHT22;3085;49.444;11.054;2023-05-10T08:00:18;14.90;99.90
6110;DHT22;3085;49.444;11.054;2023-05-10T08:02:47;14.90;99.90
6110;DHT22;3085;49.444;11.054;2023-05-10T08:05:14;15.00;99.90
6110;DHT22;3085;49.444;11.054;2023-05-10T08:07:40;15.00;99.90
6110;DHT22;3085;49.444;11.054;2023-05-10T08:10:08;15.10;99.90
6110;DHT22;3085;49.444;11.054;2023-05-10T08:12:36;15.10;99.90
6110;DHT22;3085;49.444;11.054;2023-05-10T08:15:04;15.10;99.90
6110;DHT22;3085;49.444;11.054;2023-05-10T08:17:32;15.20;99.90
6110;DHT22;3085;49.444;11.054;2023-05-10T08:20:00;15.30;99.90
6110;DHT22;3085;49.444;11.054;2023-05-10T08:22:27;15.30;99.90
6110;DHT22;3085;49.444;11.054;2023-05-10T08:24:57;15.30;99.90
6110;DHT22;3085;49.444;11.054;2023-05-10T08:27:24;15.30;99.90
6110;DHT22;3085;49.444;11.054;2023-05-10T08:29:50;15.50;99.90
6110;DHT22;3085;49.444;11.054;2023-05-10T08:32:17;15.50;99.90
6110;DHT22;3085;49.444;11.054;2023-05-10T08:34:44;15.70;99.90
6110;DHT22;3085;49.444;11.054;2023-05-10T08:37:12;15.50;99.90
6110;DHT22;3085;49.444;11.054;2023-05-10T08:39:39;15.60;99.90
6110;DHT22;3085;49.444;11.054;2023-05-10T08:42:06;15.50;99.90
6110;DHT22;3085;49.444;11.054;2023-05-10T08:44:35;15.60;99.90
6110;DHT22;3085;49.444;11.054;2023-05-10T08:47:05;15.80;99.90
6110;DHT22;3085;49.444;11.054;2023-05-10T08:49:33;15.80;99.90
6110;DHT22;3085;49.444;11.054;2023-05-10T08:52:02;15.90;99.90
6110;DHT22;3085;49.444;11.054;2023-05-10T08:54:31;16.00;99.90
6110;DHT22;3085;49.444;11.054;2023-05-10T08:56:58;16.00;99.90
6110;DHT22;3085;49.444;11.054;2023-05-10T08:59:25;16.00;99.90
6110;DHT22;3085;49.444;11.054;2023-05-10T09:01:53;15.90;99.90
6110;DHT22;3085;49.444;11.054;2023-05-10T09:04:22;15.60;99.90
6110;DHT22;3085;49.444;11.054;2023-05-10T09:06:49;15.50;99.90
6110;DHT22;3085;49.444;11.054;2023-05-10T09:09:17;15.40;99.90
6110;DHT22;3085;49.444;11.054;2023-05-10T09:11:48;15.30;99.90
6110;DHT22;3085;49.444;11.054;2023-05-10T09:14:16;14.90;99.90
6110;DHT22;3085;49.444;11.054;2023-05-10T09:16:43;14.90;99.90
6110;DHT22;3085;49.444;11.054;2023-05-10T09:19:10;15.00;99.90
6110;DHT22;3085;49.444;11.054;2023-05-10T09:21:37;15.00;99.90
6110;DHT22;3085;49.444;11.054;2023-05-10T09:24:06;15.00;99.90
6110;DHT22;3085;49.444;11.054;2023-05-10T09:26:33;15.00;99.90
6110;DHT22;3085;49.444;11.054;2023-05-10T09:29:02;15.00;99.90
6110;DHT22;3085;49.444;11.054;2023-05-10T09:31:47;15.10;99.90
6110;DHT22;3085;49.444;11.054;2023-05-10T09:34:17;15.20;99.90
6110;DHT22;3085;49.444;11.054;2023-05-10T09:36:54;15.00;99.90
6110;DHT22;3085;49.444;11.054;2023-05-10T09:39:30;15.30;99.90
6110;DHT22;3085;49.444;11.054;2023-05-10T09:41:58;15.40;99.90
6110;DHT22;3085;49.444;11.054;2023-05-10T09:44:27;15.50;99.90
6110;DHT22;3085;49.444;11.054;2023-05-10T09:46:54;15.60;99.90
6110;DHT22;3085;49.444;11.054;2023-05-10T09:49:21;15.70;99.90
6110;DHT22;3085;49.444;11.054;2023-05-10T09:52:00;15.80;99.90
6110;DHT22;3085;49.444;11.054;2023-05-10T09:54:28;15.90;99.90
6110;DHT22;3085;49.444;11.054;2023-05-10T09:56:54;16.60;99.90
6110;DHT22;3085;49.444;11.054;2023-05-10T09:59:21;16.00;99.90
6110;DHT22;3085;49.444;11.054;2023-05-10T10:01:52;16.10;99.90
6110;DHT22;3085;49.444;11.054;2023-05-10T10:04:20;16.30;99.90
6110;DHT22;3085;49.444;11.054;2023-05-10T10:06:58;16.30;99.90
6110;DHT22;3085;49.444;11.054;2023-05-10T10:09:25;16.30;99.90
6110;DHT22;3085;49.444;11.054;2023-05-10T10:11:54;16.40;99.90
6110;DHT22;3085;49.444;11.054;2023-05-10T10:14:21;16.30;99.90
6110;DHT22;3085;49.444;11.054;2023-05-10T10:16:49;16.30;99.90
6110;DHT22;3085;49.444;11.054;2023-05-10T10:19:17;16.30;99.90
6110;DHT22;3085;49.444;11.054;2023-05-10T10:21:44;16.30;99.90
6110;DHT22;3085;49.444;11.054;2023-05-10T10:24:11;16.40;99.90
6110;DHT22;3085;49.444;11.054;2023-05-10T10:26:38;16.60;99.90
6110;DHT22;3085;49.444;11.054;2023-05-10T10:29:15;16.90;99.90
6110;DHT22;3085;49.444;11.054;2023-05-10T10:31:47;17.00;99.90
6110;DHT22;3085;49.444;11.054;2023-05-10T10:34:25;16.90;99.90
6110;DHT22;3085;49.444;11.054;2023-05-10T10:36:52;16.90;99.90
6110;DHT22;3085;49.444;11.054;2023-05-10T10:39:20;17.00;99.90
6110;DHT22;3085;49.444;11.054;2023-05-10T10:41:51;17.10;99.90
6110;DHT22;3085;49.444;11.054;2023-05-10T10:44:37;17.10;99.90
6110;DHT22;3085;49.444;11.054;2023-05-10T10:47:21;17.10;99.90
6110;DHT22;3085;49.444;11.054;2023-05-10T10:50:05;17.00;99.90
6110;DHT22;3085;49.444;11.054;2023-05-10T10:52:33;16.90;99.90
6110;DHT22;3085;49.444;11.054;2023-05-10T10:55:02;16.80;99.90
6110;DHT22;3085;49.444;11.054;2023-05-10T10:57:44;16.80;99.90
6110;DHT22;3085;49.444;11.054;2023-05-10T11:00:25;16.60;99.90
6110;DHT22;3085;49.444;11.054;2023-05-10T11:02:55;16.40;99.90
6110;DHT22;3085;49.444;11.054;2023-05-10T11:05:45;16.40;99.90
6110;DHT22;3085;49.444;11.054;2023-05-10T11:08:17;16.30;99.90
6110;DHT22;3085;49.444;11.054;2023-05-10T11:11:02;16.40;99.90
6110;DHT22;3085;49.444;11.054;2023-05-10T11:13:30;16.60;99.90
6110;DHT22;3085;49.444;11.054;2023-05-10T11:15:58;16.50;99.90
6110;DHT22;3085;49.444;11.054;2023-05-10T11:18:28;16.50;99.90
6110;DHT22;3085;49.444;11.054;2023-05-10T11:20:58;16.60;99.90
6110;DHT22;3085;49.444;11.054;2023-05-10T11:23:30;17.20;99.90
6110;DHT22;3085;49.444;11.054;2023-05-10T11:25:58;16.50;99.90
6110;DHT22;3085;49.444;11.054;2023-05-10T11:28:26;18.10;99.90
6110;DHT22;3085;49.444;11.054;2023-05-10T11:30:54;16.60;99.90
6110;DHT22;3085;49.444;11.054;2023-05-10T11:33:22;16.70;99.90
6110;DHT22;3085;49.444;11.054;2023-05-10T11:35:49;16.60;99.90
6110;DHT22;3085;49.444;11.054;2023-05-10T11:38:17;16.70;99.90
6110;DHT22;3085;49.444;11.054;2023-05-10T11:40:43;16.80;99.90
6110;DHT22;3085;49.444;11.054;2023-05-10T11:43:10;16.80;99.90
6110;DHT22;3085;49.444;11.054;2023-05-10T11:45:38;16.80;99.90
6110;DHT22;3085;49.444;11.054;2023-05-10T11:48:04;16.80;99.90
6110;DHT22;3085;49.444;11.054;2023-05-10T11:50:31;16.80;99.90
6110;DHT22;3085;49.444;11.054;2023-05-10T11:52:59;16.80;99.90
6110;DHT22;3085;49.444;11.054;2023-05-10T11:55:27;16.90;99.90
6110;DHT22;3085;49.444;11.054;2023-05-10T11:58:00;16.90;99.90
6110;DHT22;3085;49.444;11.054;2023-05-10T12:00:27;16.70;99.90
6110;DHT22;3085;49.444;11.054;2023-05-10T12:02:54;16.60;99.90
6110;DHT22;3085;49.444;11.054;2023-05-10T12:05:21;16.70;99.90
6110;DHT22;3085;49.444;11.054;2023-05-10T12:07:48;16.80;99.90
6110;DHT22;3085;49.444;11.054;2023-05-10T12:10:15;16.70;99.90
6110;DHT22;3085;49.444;11.054;2023-05-10T12:12:45;16.70;99.90
6110;DHT22;3085;49.444;11.054;2023-05-10T12:15:17;16.90;99.90
6110;DHT22;3085;49.444;11.054;2023-05-10T12:17:45;17.00;99.90
6110;DHT22;3085;49.444;11.054;2023-05-10T12:20:13;17.00;99.90
6110;DHT22;3085;49.444;11.054;2023-05-10T12:22:41;17.00;99.90
6110;DHT22;3085;49.444;11.054;2023-05-10T12:25:10;16.90;99.90
6110;DHT22;3085;49.444;11.054;2023-05-10T12:27:37;17.00;99.90
6110;DHT22;3085;49.444;11.054;2023-05-10T12:30:07;16.90;99.90
6110;DHT22;3085;49.444;11.054;2023-05-10T12:32:41;17.00;99.90
6110;DHT22;3085;49.444;11.054;2023-05-10T12:35:08;17.00;99.90
6110;DHT22;3085;49.444;11.054;2023-05-10T12:37:36;17.10;99.90
6110;DHT22;3085;49.444;11.054;2023-05-10T12:40:14;17.10;99.90
6110;DHT22;3085;49.444;11.054;2023-05-10T12:42:41;17.10;99.90
6110;DHT22;3085;49.444;11.054;2023-05-10T12:45:11;17.10;99.90
6110;DHT22;3085;49.444;11.054;2023-05-10T12:47:38;17.20;99.90
6110;DHT22;3085;49.444;11.054;2023-05-10T12:50:06;17.30;99.90
6110;DHT22;3085;49.444;11.054;2023-05-10T12:52:33;17.30;99.90
6110;DHT22;3085;49.444;11.054;2023-05-10T12:55:00;17.10;99.90
6110;DHT22;3085;49.444;11.054;2023-05-10T12:57:28;17.30;99.90
6110;DHT22;3085;49.444;11.054;2023-05-10T12:59:56;17.30;99.90
6110;DHT22;3085;49.444;11.054;2023-05-10T13:02:26;17.30;99.90
6110;DHT22;3085;49.444;11.054;2023-05-10T13:04:53;17.30;99.90
6110;DHT22;3085;49.444;11.054;2023-05-10T13:07:19;17.30;99.90
6110;DHT22;3085;49.444;11.054;2023-05-10T13:09:46;17.10;99.90
6110;DHT22;3085;49.444;11.054;2023-05-10T13:12:13;17.20;99.90
6110;DHT22;3085;49.444;11.054;2023-05-10T13:14:40;17.20;99.90
6110;DHT22;3085;49.444;11.054;2023-05-10T13:17:07;17.20;99.90
6110;DHT22;3085;49.444;11.054;2023-05-10T13:19:35;17.30;99.90
6110;DHT22;3085;49.444;11.054;2023-05-10T13:22:02;17.30;99.90
6110;DHT22;3085;49.444;11.054;2023-05-10T13:24:29;17.30;99.90
6110;DHT22;3085;49.444;11.054;2023-05-10T13:26:56;17.30;99.90
6110;DHT22;3085;49.444;11.054;2023-05-10T13:29:23;17.30;99.90
6110;DHT22;3085;49.444;11.054;2023-05-10T13:32:09;17.40;99.90
6110;DHT22;3085;49.444;11.054;2023-05-10T13:34:55;17.30;99.90
6110;DHT22;3085;49.444;11.054;2023-05-10T13:37:21;17.30;99.90
6110;DHT22;3085;49.444;11.054;2023-05-10T13:39:48;17.20;99.90
6110;DHT22;3085;49.444;11.054;2023-05-10T13:42:15;17.70;99.90
6110;DHT22;3085;49.444;11.054;2023-05-10T13:44:42;17.10;99.90
6110;DHT22;3085;49.444;11.054;2023-05-10T13:47:08;17.20;99.90
6110;DHT22;3085;49.444;11.054;2023-05-10T13:49:35;17.30;99.90
6110;DHT22;3085;49.444;11.054;2023-05-10T13:52:03;18.60;99.90
6110;DHT22;3085;49.444;11.054;2023-05-10T13:54:32;17.40;99.90
6110;DHT22;3085;49.444;11.054;2023-05-10T13:56:59;17.60;99.90
6110;DHT22;3085;49.444;11.054;2023-05-10T13:59:26;17.60;99.90
6110;DHT22;3085;49.444;11.054;2023-05-10T14:01:52;17.50;99.90
6110;DHT22;3085;49.444;11.054;2023-05-10T14:04:19;17.60;99.90
6110;DHT22;3085;49.444;11.054;2023-05-10T14:06:46;17.60;99.90
6110;DHT22;3085;49.444;11.054;2023-05-10T14:09:14;17.60;99.90
6110;DHT22;3085;49.444;11.054;2023-05-10T14:11:41;17.70;99.90
6110;DHT22;3085;49.444;11.054;2023-05-10T14:14:09;17.60;99.90
6110;DHT22;3085;49.444;11.054;2023-05-10T14:16:35;17.60;99.90
6110;DHT22;3085;49.444;11.054;2023-05-10T14:19:02;17.60;99.90
6110;DHT22;3085;49.444;11.054;2023-05-10T14:21:29;17.70;99.90
6110;DHT22;3085;49.444;11.054;2023-05-10T14:23:56;17.70;99.90
6110;DHT22;3085;49.444;11.054;2023-05-10T14:26:24;17.60;99.90
6110;DHT22;3085;49.444;11.054;2023-05-10T14:28:51;17.60;99.90
6110;DHT22;3085;49.444;11.054;2023-05-10T14:31:18;17.60;99.90
6110;DHT22;3085;49.444;11.054;2023-05-10T14:33:46;17.50;99.90
6110;DHT22;3085;49.444;11.054;2023-05-10T14:36:13;17.50;99.90
6110;DHT22;3085;49.444;11.054;2023-05-10T14:38:40;17.60;99.90
6110;DHT22;3085;49.444;11.054;2023-05-10T14:41:07;17.60;99.90
6110;DHT22;3085;49.444;11.054;2023-05-10T14:43:35;17.50;99.90
6110;DHT22;3085;49.444;11.054;2023-05-10T14:46:02;17.50;99.90
6110;DHT22;3085;49.444;11.054;2023-05-10T14:48:28;17.50;99.90
6110;DHT22;3085;49.444;11.054;2023-05-10T14:50:55;17.50;99.90
6110;DHT22;3085;49.444;11.054;2023-05-10T14:53:22;17.50;99.90
6110;DHT22;3085;49.444;11.054;2023-05-10T14:55:49;17.40;99.90
6110;DHT22;3085;49.444;11.054;2023-05-10T14:58:16;17.50;99.90
6110;DHT22;3085;49.444;11.054;2023-05-10T15:00:44;17.40;99.90
6110;DHT22;3085;49.444;11.054;2023-05-10T15:03:11;17.40;99.90
6110;DHT22;3085;49.444;11.054;2023-05-10T15:05:38;17.50;99.90
6110;DHT22;3085;49.444;11.054;2023-05-10T15:08:05;17.50;99.90
6110;DHT22;3085;49.444;11.054;2023-05-10T15:10:32;17.40;99.90
6110;DHT22;3085;49.444;11.054;2023-05-10T15:12:59;17.10;99.90
6110;DHT22;3085;49.444;11.054;2023-05-10T15:15:26;16.80;99.90
6110;DHT22;3085;49.444;11.054;2023-05-10T15:17:54;16.80;99.90
6110;DHT22;3085;49.444;11.054;2023-05-10T15:20:21;16.50;99.90
6110;DHT22;3085;49.444;11.054;2023-05-10T15:22:47;16.20;99.90
6110;DHT22;3085;49.444;11.054;2023-05-10T15:25:14;14.50;99.90
6110;DHT22;3085;49.444;11.054;2023-05-10T15:27:41;15.90;99.90
6110;DHT22;3085;49.444;11.054;2023-05-10T15:30:09;16.00;99.90
6110;DHT22;3085;49.444;11.054;2023-05-10T15:32:36;16.00;99.90
6110;DHT22;3085;49.444;11.054;2023-05-10T15:35:08;16.10;99.90
6110;DHT22;3085;49.444;11.054;2023-05-10T15:37:35;16.10;99.90
6110;DHT22;3085;49.444;11.054;2023-05-10T15:40:02;16.00;99.90
6110;DHT22;3085;49.444;11.054;2023-05-10T15:42:29;16.00;99.90
6110;DHT22;3085;49.444;11.054;2023-05-10T15:44:57;16.40;99.90
6110;DHT22;3085;49.444;11.054;2023-05-10T15:47:25;16.20;99.90
6110;DHT22;3085;49.444;11.054;2023-05-10T15:49:52;16.10;99.90
6110;DHT22;3085;49.444;11.054;2023-05-10T15:52:20;16.00;99.90
6110;DHT22;3085;49.444;11.054;2023-05-10T15:54:48;16.10;99.90
6110;DHT22;3085;49.444;11.054;2023-05-10T15:57:15;16.10;99.90